createdAt,value
2022-07-29T00:01:26.206Z,20.50
2022-07-29T00:04:11.029Z,20.49
2022-07-29T00:06:56.322Z,20.48
2022-07-29T00:09:43.011Z,20.41
2022-07-29T00:12:35.791Z,20.44
2022-07-29T00:15:21.057Z,20.40
2022-07-29T00:18:05.877Z,20.34
2022-07-29T00:20:50.580Z,20.35
2022-07-29T00:23:36.911Z,20.27
2022-07-29T00:26:21.825Z,20.28
2022-07-29T00:29:33.069Z,20.27
2022-07-29T00:32:11.641Z,20.22
2022-07-29T00:34:56.316Z,20.20
2022-07-29T00:37:41.091Z,20.16
2022-07-29T00:40:25.846Z,20.14
2022-07-29T00:43:10.668Z,20.04
2022-07-29T00:45:55.535Z,19.92
2022-07-29T00:48:40.287Z,19.90
2022-07-29T00:51:25.562Z,19.89
2022-07-29T00:54:11.870Z,19.91
2022-07-29T00:56:57.300Z,19.89
2022-07-29T00:59:41.903Z,19.84
2022-07-29T01:02:26.790Z,19.78
2022-07-29T01:05:12.068Z,19.75
2022-07-29T01:07:56.793Z,19.71
2022-07-29T01:10:41.554Z,19.67
2022-07-29T01:13:26.258Z,19.58
2022-07-29T01:16:11.122Z,19.61
2022-07-29T01:18:56.335Z,19.63
2022-07-29T01:21:41.196Z,19.58
2022-07-29T01:24:27.435Z,19.55
2022-07-29T01:27:12.030Z,19.53
2022-07-29T01:30:01.395Z,19.50
2022-07-29T01:32:50.330Z,19.42
2022-07-29T01:35:34.942Z,19.34
2022-07-29T01:38:19.735Z,19.28
2022-07-29T01:41:04.997Z,19.20
2022-07-29T01:43:49.656Z,19.19
2022-07-29T01:46:34.439Z,19.21
2022-07-29T01:49:19.363Z,19.24
2022-07-29T01:52:04.514Z,19.18
2022-07-29T01:54:49.197Z,19.18
2022-07-29T01:57:34.023Z,19.18
2022-07-29T02:00:18.840Z,19.14
2022-07-29T02:03:03.852Z,19.07
2022-07-29T02:05:48.494Z,19.06
2022-07-29T02:08:33.312Z,19.06
2022-07-29T02:11:18.097Z,19.00
2022-07-29T02:14:03.471Z,18.96
2022-07-29T02:16:48.331Z,18.91
2022-07-29T02:19:32.886Z,18.91
2022-07-29T02:22:17.899Z,18.96
2022-07-29T02:25:03.187Z,18.94
2022-07-29T02:27:48.943Z,18.94
2022-07-29T02:30:33.658Z,18.90
2022-07-29T02:33:18.533Z,18.91
2022-07-29T02:36:03.187Z,18.95
2022-07-29T02:38:48.067Z,19.00
2022-07-29T02:41:32.745Z,18.95
2022-07-29T02:44:17.846Z,18.95
2022-07-29T02:47:02.863Z,18.92
2022-07-29T02:49:48.067Z,18.99
2022-07-29T02:52:33.100Z,19.08
2022-07-29T02:55:17.875Z,19.06
2022-07-29T02:58:02.749Z,19.06
2022-07-29T03:00:47.510Z,19.03
2022-07-29T03:03:32.281Z,18.96
2022-07-29T03:06:30.954Z,18.92
2022-07-29T03:09:21.768Z,18.87
2022-07-29T03:12:06.537Z,18.78
2022-07-29T03:14:51.253Z,18.67
2022-07-29T03:17:36.230Z,18.62
2022-07-29T03:20:21.020Z,18.63
2022-07-29T03:23:05.712Z,18.63
2022-07-29T03:25:50.559Z,18.63
2022-07-29T03:28:35.318Z,18.61
2022-07-29T03:31:21.670Z,18.63
2022-07-29T03:34:06.937Z,18.60
2022-07-29T03:36:51.807Z,18.62
2022-07-29T03:39:36.593Z,18.63
2022-07-29T03:42:21.279Z,18.68
2022-07-29T03:45:06.172Z,18.69
2022-07-29T03:47:53.742Z,18.71
2022-07-29T03:50:40.663Z,18.72
2022-07-29T03:53:25.416Z,18.77
2022-07-29T03:56:10.258Z,18.76
2022-07-29T03:58:55.019Z,18.76
2022-07-29T04:01:39.830Z,18.74
2022-07-29T04:04:25.121Z,18.69
2022-07-29T04:07:12.369Z,18.71
2022-07-29T04:09:57.425Z,18.69
2022-07-29T04:12:42.353Z,18.67
2022-07-29T04:15:26.929Z,18.66
2022-07-29T04:18:16.637Z,18.68
2022-07-29T04:21:01.410Z,18.64
2022-07-29T04:23:47.935Z,18.61
2022-07-29T04:26:38.048Z,18.65
2022-07-29T04:29:22.827Z,18.69
2022-07-29T04:32:07.530Z,18.74
2022-07-29T04:34:52.420Z,18.82
2022-07-29T04:37:37.197Z,18.88
2022-07-29T04:40:21.970Z,18.98
2022-07-29T04:43:06.670Z,18.99
2022-07-29T04:45:52.485Z,19.03
2022-07-29T04:48:37.700Z,19.08
2022-07-29T04:51:22.496Z,19.18
2022-07-29T04:54:07.234Z,19.23
2022-07-29T04:56:51.989Z,19.36
2022-07-29T04:59:36.819Z,19.42
2022-07-29T05:02:21.564Z,19.49
2022-07-29T05:05:06.272Z,19.55
2022-07-29T05:07:50.987Z,19.67
2022-07-29T05:10:35.701Z,19.89
2022-07-29T05:13:20.492Z,20.13
2022-07-29T05:16:05.183Z,20.34
2022-07-29T05:18:50.109Z,20.57
2022-07-29T05:21:34.811Z,20.64
2022-07-29T05:24:20.024Z,20.72
2022-07-29T05:27:05.276Z,20.67
2022-07-29T05:29:49.928Z,20.65
2022-07-29T05:32:34.656Z,20.74
2022-07-29T05:35:19.369Z,21.02
2022-07-29T05:38:04.027Z,21.10
2022-07-29T05:40:48.812Z,21.80
2022-07-29T05:43:33.585Z,23.76
2022-07-29T05:46:18.328Z,24.65
2022-07-29T05:49:03.767Z,25.74
2022-07-29T05:51:48.832Z,24.08
2022-07-29T05:54:33.558Z,23.15
2022-07-29T05:57:18.250Z,22.90
2022-07-29T06:00:02.938Z,25.13
2022-07-29T06:02:47.562Z,27.21
2022-07-29T06:05:33.974Z,29.04
2022-07-29T06:08:18.823Z,30.44
2022-07-29T06:11:03.479Z,31.28
2022-07-29T06:13:48.346Z,31.73
2022-07-29T06:16:33.175Z,31.45
2022-07-29T06:19:18.604Z,31.48
2022-07-29T06:22:03.195Z,33.33
2022-07-29T06:24:48.136Z,34.22
2022-07-29T06:27:32.862Z,34.29
2022-07-29T06:30:17.736Z,34.88
2022-07-29T06:33:02.518Z,33.88
2022-07-29T06:35:53.192Z,30.26
2022-07-29T06:38:42.908Z,28.68
2022-07-29T06:41:32.464Z,28.19
2022-07-29T06:44:17.527Z,29.69
2022-07-29T06:47:02.722Z,30.82
2022-07-29T06:49:47.592Z,32.78
2022-07-29T06:52:32.262Z,35.27
2022-07-29T06:55:25.083Z,36.31
2022-07-29T06:58:10.491Z,34.38
2022-07-29T07:00:55.252Z,34.17
2022-07-29T07:03:40.351Z,33.66
2022-07-29T07:06:25.080Z,33.72
2022-07-29T07:09:09.756Z,33.02
2022-07-29T07:11:54.575Z,32.01
2022-07-29T07:14:39.148Z,32.07
2022-07-29T07:17:23.852Z,31.67
2022-07-29T07:20:08.708Z,30.58
2022-07-29T07:22:53.999Z,29.88
2022-07-29T07:25:38.745Z,29.06
2022-07-29T07:28:24.746Z,28.55
2022-07-29T07:31:09.788Z,28.41
2022-07-29T07:33:54.588Z,28.60
2022-07-29T07:36:39.881Z,30.38
2022-07-29T07:39:24.958Z,29.38
2022-07-29T07:42:10.310Z,27.99
2022-07-29T07:45:12.483Z,27.21
2022-07-29T07:47:57.803Z,26.95
2022-07-29T07:50:42.520Z,26.48
2022-07-29T07:53:27.306Z,25.75
2022-07-29T07:56:12.982Z,25.38
2022-07-29T07:58:57.854Z,25.13
2022-07-29T08:01:55.134Z,24.97
2022-07-29T08:04:41.572Z,24.85
2022-07-29T08:07:26.320Z,24.75
2022-07-29T08:10:10.990Z,24.62
2022-07-29T08:12:55.797Z,24.57
2022-07-29T08:15:40.520Z,24.64
2022-07-29T08:18:25.344Z,24.67
2022-07-29T08:21:10.102Z,24.50
2022-07-29T08:24:00.678Z,24.51
2022-07-29T08:26:47.521Z,24.78
2022-07-29T08:29:32.182Z,25.12
2022-07-29T08:32:31.122Z,25.24
2022-07-29T08:35:21.580Z,25.35
2022-07-29T08:38:06.417Z,25.39
2022-07-29T08:40:51.066Z,25.29
2022-07-29T08:43:35.856Z,25.29
2022-07-29T08:46:20.516Z,25.39
2022-07-29T08:49:05.938Z,25.59
2022-07-29T08:51:51.096Z,25.82
2022-07-29T08:54:35.738Z,25.89
2022-07-29T08:57:20.469Z,25.85
2022-07-29T09:00:08.134Z,25.93
2022-07-29T09:02:56.976Z,25.98
2022-07-29T09:05:44.927Z,26.11
2022-07-29T09:08:33.114Z,26.08
2022-07-29T09:11:17.710Z,25.89
2022-07-29T09:14:02.660Z,25.41
2022-07-29T09:16:53.152Z,24.94
2022-07-29T09:19:39.031Z,24.45
2022-07-29T09:22:30.064Z,24.09
2022-07-29T09:25:14.842Z,23.87
2022-07-29T09:27:59.599Z,23.54
2022-07-29T09:30:44.446Z,23.61
2022-07-29T09:33:29.090Z,23.53
2022-07-29T09:36:14.118Z,23.50
2022-07-29T09:38:58.748Z,23.44
2022-07-29T09:41:43.578Z,23.61
2022-07-29T09:44:28.442Z,23.63
2022-07-29T09:47:13.327Z,23.69
2022-07-29T09:49:58.080Z,23.78
2022-07-29T09:52:42.798Z,23.75
2022-07-29T09:55:27.603Z,23.60
2022-07-29T09:58:12.391Z,23.54
2022-07-29T10:00:57.359Z,23.63
2022-07-29T10:03:42.123Z,23.52
2022-07-29T10:06:27.361Z,23.34
2022-07-29T10:09:12.249Z,23.27
2022-07-29T10:11:56.969Z,23.12
2022-07-29T10:14:42.226Z,22.79
2022-07-29T10:17:26.938Z,22.52
2022-07-29T10:20:16.303Z,22.48
2022-07-29T10:23:01.593Z,22.48
2022-07-29T10:25:46.811Z,22.48
2022-07-29T10:28:31.602Z,22.60
2022-07-29T10:31:16.350Z,22.71
2022-07-29T10:34:01.677Z,22.75
2022-07-29T10:36:46.372Z,22.76
2022-07-29T10:39:34.345Z,22.86
2022-07-29T10:42:29.854Z,22.81
2022-07-29T10:45:19.184Z,22.74
2022-07-29T10:48:03.866Z,22.84
2022-07-29T10:50:50.543Z,22.84
2022-07-29T10:53:35.837Z,22.78
2022-07-29T10:56:20.720Z,22.71
2022-07-29T10:59:10.412Z,22.61
2022-07-29T11:02:10.820Z,22.60
2022-07-29T11:05:01.620Z,22.49
2022-07-29T11:07:46.602Z,22.43
2022-07-29T11:10:31.950Z,22.48
2022-07-29T11:13:16.894Z,22.45
2022-07-29T11:16:02.098Z,22.52
2022-07-29T11:18:46.811Z,22.57
2022-07-29T11:21:48.877Z,22.66
2022-07-29T11:24:36.300Z,22.74
2022-07-29T11:27:21.733Z,22.78
2022-07-29T11:30:06.924Z,22.93
2022-07-29T11:32:51.754Z,23.03
2022-07-29T11:35:39.646Z,22.95
2022-07-29T11:38:24.613Z,22.96
2022-07-29T11:41:12.962Z,23.02
2022-07-29T11:43:57.676Z,23.04
2022-07-29T11:46:42.414Z,23.01
2022-07-29T11:49:32.263Z,22.64
2022-07-29T11:52:18.093Z,22.06
2022-07-29T11:55:09.778Z,21.79
2022-07-29T12:01:04.215Z,21.44
2022-07-29T12:03:50.245Z,21.35
2022-07-29T12:06:34.860Z,21.38
2022-07-29T12:09:19.654Z,21.29
2022-07-29T12:12:05.760Z,21.56
2022-07-29T12:14:50.724Z,21.53
2022-07-29T12:17:36.077Z,21.44
2022-07-29T12:20:21.179Z,21.38
2022-07-29T12:23:07.497Z,21.60
2022-07-29T12:25:52.137Z,21.66
2022-07-29T12:28:38.755Z,21.73
2022-07-29T12:31:41.985Z,21.88
2022-07-29T12:34:28.917Z,22.11
2022-07-29T12:37:13.724Z,22.28
2022-07-29T12:39:58.364Z,22.40
2022-07-29T12:42:43.231Z,22.53
2022-07-29T12:45:27.985Z,22.64
2022-07-29T12:48:12.685Z,22.70
2022-07-29T12:50:57.627Z,22.74
2022-07-29T12:53:42.299Z,22.76
2022-07-29T12:56:42.224Z,22.77
2022-07-29T12:59:27.303Z,22.75
2022-07-29T13:02:12.216Z,22.69
2022-07-29T13:04:56.762Z,22.68
2022-07-29T13:07:55.822Z,22.62
2022-07-29T13:10:42.594Z,22.55
2022-07-29T13:13:28.035Z,22.29
2022-07-29T13:16:12.828Z,21.87
2022-07-29T13:18:57.419Z,21.60
2022-07-29T13:21:42.182Z,21.40
2022-07-29T13:24:26.965Z,21.18
2022-07-29T13:27:14.914Z,21.02
2022-07-29T13:29:59.580Z,20.79
2022-07-29T13:32:44.225Z,20.58
2022-07-29T13:35:29.559Z,20.49
2022-07-29T13:38:14.194Z,20.41
2022-07-29T13:40:58.885Z,20.33
2022-07-29T13:43:43.559Z,20.31
2022-07-29T13:46:28.578Z,20.23
2022-07-29T13:49:13.691Z,20.24
2022-07-29T13:51:59.361Z,20.26
2022-07-29T13:54:44.784Z,20.34
2022-07-29T13:57:29.355Z,20.28
2022-07-29T14:00:14.168Z,20.34
2022-07-29T14:02:58.938Z,20.31
2022-07-29T14:05:43.727Z,20.19
2022-07-29T14:08:28.482Z,20.20
2022-07-29T14:11:13.295Z,20.04
2022-07-29T14:13:57.934Z,19.96
2022-07-29T14:16:47.766Z,19.77
2022-07-29T14:19:37.379Z,19.78
2022-07-29T14:22:25.382Z,19.80
2022-07-29T14:25:14.459Z,19.85
2022-07-29T14:27:59.951Z,19.92
2022-07-29T14:30:44.785Z,20.13
2022-07-29T14:33:29.403Z,20.14
2022-07-29T14:36:14.141Z,20.19
2022-07-29T14:38:59.120Z,20.27
2022-07-29T14:41:44.480Z,20.32
2022-07-29T14:44:29.433Z,20.29
2022-07-29T14:47:14.170Z,20.30
2022-07-29T14:49:59.023Z,20.42
2022-07-29T14:52:43.752Z,20.58
2022-07-29T14:55:28.608Z,20.73
2022-07-29T14:58:16.550Z,20.90
2022-07-29T15:01:01.796Z,21.11
2022-07-29T15:03:47.015Z,21.39
2022-07-29T15:06:31.620Z,21.63
2022-07-29T15:09:16.468Z,21.80
2022-07-29T15:12:01.473Z,21.83
2022-07-29T15:14:46.635Z,21.82
2022-07-29T15:17:31.427Z,21.72
2022-07-29T15:20:16.161Z,21.82
2022-07-29T15:23:00.785Z,21.80
2022-07-29T15:25:45.452Z,21.88
2022-07-29T15:28:30.278Z,21.85
2022-07-29T15:31:14.918Z,21.72
2022-07-29T15:34:05.039Z,21.61
2022-07-29T15:36:52.787Z,21.57
2022-07-29T15:39:38.258Z,21.44
2022-07-29T15:42:23.015Z,21.45
2022-07-29T15:45:07.675Z,21.41
2022-07-29T15:47:52.463Z,21.34
2022-07-29T15:50:38.350Z,21.36
2022-07-29T15:53:23.090Z,21.40
2022-07-29T15:56:07.910Z,21.48
2022-07-29T15:58:52.640Z,21.26
2022-07-29T16:01:37.440Z,20.97
2022-07-29T16:04:28.011Z,20.69
2022-07-29T16:07:12.659Z,20.35
2022-07-29T16:09:59.536Z,20.02
2022-07-29T16:12:44.242Z,19.76
2022-07-29T16:15:29.054Z,19.59
2022-07-29T16:18:13.902Z,19.63
2022-07-29T16:20:58.591Z,19.72
2022-07-29T16:23:43.441Z,19.78
2022-07-29T16:26:28.080Z,19.95
2022-07-29T16:29:12.915Z,20.01
2022-07-29T16:31:57.699Z,20.15
2022-07-29T16:34:43.027Z,20.29
2022-07-29T16:37:28.808Z,20.35
2022-07-29T16:40:13.974Z,20.52
2022-07-29T16:42:58.819Z,20.70
2022-07-29T16:45:46.090Z,20.75
2022-07-29T16:48:31.467Z,20.80
2022-07-29T16:51:16.164Z,20.41
2022-07-29T16:54:01.022Z,20.20
2022-07-29T16:56:45.830Z,19.91
2022-07-29T16:59:30.544Z,19.56
2022-07-29T17:02:15.427Z,19.32
2022-07-29T17:05:00.601Z,19.26
2022-07-29T17:07:47.974Z,19.12
2022-07-29T17:10:32.713Z,19.02
2022-07-29T17:13:17.467Z,18.93
2022-07-29T17:16:02.192Z,18.82
2022-07-29T17:18:47.341Z,18.75
2022-07-29T17:21:32.110Z,18.70
2022-07-29T17:24:16.819Z,18.69
2022-07-29T17:27:01.823Z,18.64
2022-07-29T17:29:46.596Z,18.64
2022-07-29T17:32:31.424Z,18.57
2022-07-29T17:35:16.229Z,18.54
2022-07-29T17:38:01.084Z,18.52
2022-07-29T17:40:45.724Z,18.44
2022-07-29T17:43:30.494Z,18.45
2022-07-29T17:46:15.300Z,18.51
2022-07-29T17:49:00.496Z,18.61
2022-07-29T17:51:45.210Z,18.68
2022-07-29T17:54:30.026Z,18.77
2022-07-29T17:57:14.855Z,18.82
2022-07-29T17:59:59.514Z,18.84
2022-07-29T18:02:44.314Z,18.85
2022-07-29T18:05:29.354Z,18.86
2022-07-29T18:08:14.214Z,18.92
2022-07-29T18:10:59.032Z,18.94
2022-07-29T18:13:43.730Z,18.92
2022-07-29T18:16:28.438Z,18.87
2022-07-29T18:19:13.670Z,18.83
2022-07-29T18:22:03.521Z,18.68
2022-07-29T18:24:50.642Z,18.69
2022-07-29T18:27:35.314Z,18.67
2022-07-29T18:30:20.080Z,18.70
2022-07-29T18:33:20.686Z,18.71
2022-07-29T18:36:11.448Z,18.73
2022-07-29T18:38:56.893Z,18.74
2022-07-29T18:41:49.947Z,18.68
2022-07-29T18:44:43.502Z,18.54
2022-07-29T18:47:32.303Z,18.51
2022-07-29T18:50:17.604Z,18.45
2022-07-29T18:53:02.421Z,18.53
2022-07-29T18:55:47.301Z,18.52
2022-07-29T18:58:32.109Z,18.54
2022-07-29T19:01:17.029Z,18.58
2022-07-29T19:04:01.736Z,18.58
2022-07-29T19:06:46.570Z,18.58
2022-07-29T19:09:31.377Z,18.57
2022-07-29T19:12:16.573Z,18.59
2022-07-29T19:15:01.203Z,18.62
2022-07-29T19:17:46.006Z,18.65
2022-07-29T19:20:30.759Z,18.68
2022-07-29T19:23:15.416Z,18.68
2022-07-29T19:26:00.310Z,18.69
2022-07-29T19:28:48.806Z,18.74
2022-07-29T19:31:34.557Z,18.74
2022-07-29T19:34:19.859Z,18.75
2022-07-29T19:37:04.510Z,18.70
2022-07-29T19:39:49.342Z,18.73
2022-07-29T19:42:34.146Z,18.73
2022-07-29T19:45:19.015Z,18.74
2022-07-29T19:48:03.695Z,18.74
2022-07-29T19:50:48.501Z,18.75
2022-07-29T19:53:33.199Z,18.71
2022-07-29T19:56:17.903Z,18.75
2022-07-29T19:59:02.627Z,18.72
2022-07-29T20:01:52.521Z,18.71
2022-07-29T20:04:37.663Z,18.70
2022-07-29T20:07:22.363Z,18.72
2022-07-29T20:10:06.977Z,18.69
2022-07-29T20:12:52.469Z,18.63
2022-07-29T20:15:39.886Z,18.53
2022-07-29T20:18:25.261Z,18.38
2022-07-29T20:21:09.911Z,18.31
2022-07-29T20:23:54.679Z,18.34
2022-07-29T20:26:39.513Z,18.41
2022-07-29T20:29:24.117Z,18.41
2022-07-29T20:32:08.936Z,18.42
2022-07-29T20:34:53.710Z,18.44
2022-07-29T20:37:52.246Z,18.38
2022-07-29T20:40:41.300Z,18.40
2022-07-29T20:43:25.958Z,18.35
2022-07-29T20:46:10.730Z,18.37
2022-07-29T20:48:55.414Z,18.34
2022-07-29T20:51:43.511Z,18.35
2022-07-29T20:54:28.780Z,18.34
2022-07-29T20:57:13.615Z,18.33
2022-07-29T20:59:58.298Z,18.32
2022-07-29T21:02:42.993Z,18.33
2022-07-29T21:05:28.347Z,18.31
2022-07-29T21:08:13.130Z,18.27
2022-07-29T21:10:57.831Z,18.26
2022-07-29T21:13:42.497Z,18.16
2022-07-29T21:16:27.428Z,17.98
2022-07-29T21:19:12.490Z,17.76
2022-07-29T21:21:57.332Z,17.56
2022-07-29T21:24:42.111Z,17.42
2022-07-29T21:27:27.949Z,17.35
2022-07-29T21:30:13.235Z,17.33
2022-07-29T21:32:58.012Z,17.33
2022-07-29T21:36:01.629Z,17.30
2022-07-29T21:38:47.804Z,17.31
2022-07-29T21:41:32.647Z,17.30
2022-07-29T21:44:17.608Z,17.30
2022-07-29T21:47:02.716Z,17.32
2022-07-29T21:49:47.729Z,17.29
2022-07-29T21:52:34.432Z,17.25
2022-07-29T21:55:21.979Z,17.21
2022-07-29T21:58:09.431Z,17.21
2022-07-29T22:00:54.226Z,17.19
2022-07-29T22:03:40.411Z,17.15
2022-07-29T22:06:25.223Z,17.11
2022-07-29T22:09:09.964Z,17.08
2022-07-29T22:11:54.839Z,17.00
2022-07-29T22:14:39.586Z,16.98
2022-07-29T22:17:24.815Z,16.99
2022-07-29T22:20:09.549Z,16.99
2022-07-29T22:22:54.257Z,16.96
2022-07-29T22:25:38.960Z,16.96
2022-07-29T22:28:23.676Z,16.92
2022-07-29T22:31:08.436Z,16.92
2022-07-29T22:33:53.516Z,16.89
2022-07-29T22:36:38.311Z,16.89
2022-07-29T22:39:23.172Z,16.81
2022-07-29T22:42:08.015Z,16.78
2022-07-29T22:44:52.785Z,16.83
2022-07-29T22:47:46.115Z,16.83
2022-07-29T22:50:33.597Z,16.86
2022-07-29T22:53:18.351Z,16.87
2022-07-29T22:56:03.523Z,16.81
2022-07-29T22:58:48.437Z,16.84
2022-07-29T23:01:37.853Z,16.93
2022-07-29T23:04:23.391Z,16.94
2022-07-29T23:07:08.281Z,17.06
2022-07-29T23:09:52.956Z,17.03
2022-07-29T23:12:37.846Z,17.04
2022-07-29T23:15:22.506Z,17.08
2022-07-29T23:18:07.326Z,17.07
2022-07-29T23:20:52.114Z,17.04
2022-07-29T23:23:36.952Z,17.06
2022-07-29T23:26:21.567Z,17.03
2022-07-29T23:29:06.214Z,16.94
2022-07-29T23:31:51.009Z,16.92
2022-07-29T23:34:35.726Z,16.97
2022-07-29T23:37:20.535Z,16.98
2022-07-29T23:40:05.356Z,17.00
2022-07-29T23:42:50.275Z,17.03
2022-07-29T23:45:44.673Z,17.09
2022-07-29T23:48:33.319Z,17.14
2022-07-29T23:51:18.094Z,17.18
2022-07-29T23:54:02.807Z,17.17
2022-07-29T23:56:47.548Z,17.16
2022-07-29T23:59:32.474Z,17.19
